Time;durP1;ratioP1;P1;durP2;ratioP2;P2;SDS_P1;SDS_P2;PMS_P1;PMS_P2;Temp;Humidity;BMP_temperature;BMP_pressure;BME280_temperature;BME280_humidity;BME280_pressure;Samples;Min_cycle;Max_cycle;Signal;HPM_P1;HPM_P2
2021/08/25 00:00:11;;;;;;;2.43;2.23;;;24.00;55.10;;;;;;5104190;27;20560;-68
2021/08/25 00:02:41;;;;;;;2.30;2.10;;;24.00;54.50;;;;;;5103714;28;20193;-69
2021/08/25 00:05:14;;;;;;;2.87;2.20;;;24.00;54.50;;;;;;5086416;28;20204;-69
2021/08/25 00:07:43;;;;;;;2.30;2.10;;;24.00;54.60;;;;;;5111961;28;20224;-68
2021/08/25 00:10:15;;;;;;;2.53;1.97;;;24.00;54.50;;;;;;5109596;28;20188;-68
2021/08/25 00:12:45;;;;;;;2.83;2.20;;;24.00;55.20;;;;;;5106172;28;20550;-68
2021/08/25 00:15:18;;;;;;;2.10;1.90;;;24.00;54.60;;;;;;5098310;28;20240;-68
2021/08/25 00:17:49;;;;;;;3.10;2.10;;;24.00;54.60;;;;;;5103520;28;20723;-68
2021/08/25 00:20:18;;;;;;;3.20;2.57;;;24.00;54.60;;;;;;5084229;28;20213;-69
2021/08/25 00:22:47;;;;;;;2.20;2.00;;;24.00;54.60;;;;;;5103258;28;20208;-68
2021/08/25 00:25:22;;;;;;;3.50;2.00;;;24.00;54.60;;;;;;5070105;28;20776;-68
2021/08/25 00:27:53;;;;;;;2.27;2.07;;;24.00;54.60;;;;;;5088587;28;20201;-68
2021/08/25 00:30:26;;;;;;;3.90;2.40;;;23.90;55.20;;;;;;5093660;28;20208;-68
2021/08/25 00:32:55;;;;;;;2.50;2.27;;;23.90;54.60;;;;;;5108540;28;20192;-68
2021/08/25 00:35:24;;;;;;;3.23;2.50;;;23.90;54.60;;;;;;5094514;28;20232;-68
2021/08/25 00:37:55;;;;;;;2.83;2.10;;;23.90;54.60;;;;;;5101145;28;20212;-68
2021/08/25 00:40:26;;;;;;;2.37;2.10;;;23.90;54.60;;;;;;5086936;28;20200;-68
2021/08/25 00:43:20;;;;;;;2.33;1.90;;;23.90;54.60;;;;;;5108519;28;21304;-68
2021/08/25 00:45:50;;;;;;;2.20;2.00;;;23.90;54.60;;;;;;5077339;28;20196;-68
2021/08/25 00:48:20;;;;;;;2.30;2.10;;;23.90;54.70;;;;;;5093595;28;20314;-68
2021/08/25 00:50:52;;;;;;;2.87;2.17;;;23.90;54.70;;;;;;5090850;28;20265;-68
2021/08/25 00:53:24;;;;;;;2.30;2.10;;;23.90;54.70;;;;;;5093134;28;20197;-68
2021/08/25 00:56:07;;;;;;;2.10;1.90;;;23.90;54.70;;;;;;5091118;28;20216;-69
2021/08/25 00:58:46;;;;;;;3.13;2.20;;;23.90;54.70;;;;;;5078579;28;20219;-69
2021/08/25 01:02:06;;;;;;;2.83;2.23;;;23.90;54.70;;;;;;5099678;27;20200;-69
2021/08/25 01:04:58;;;;;;;2.47;1.70;;;23.90;54.70;;;;;;5101668;27;20197;-69
2021/08/25 01:07:30;;;;;;;2.60;2.17;;;23.80;54.70;;;;;;5097444;28;20210;-69
2021/08/25 01:10:28;;;;;;;2.57;2.10;;;23.90;54.80;;;;;;5083486;28;20210;-69
2021/08/25 01:13:06;;;;;;;2.10;1.90;;;23.90;54.80;;;;;;5082087;28;20211;-69
2021/08/25 01:15:40;;;;;;;2.27;1.87;;;23.80;54.80;;;;;;5089779;28;20223;-69
2021/08/25 01:18:36;;;;;;;3.07;2.10;;;23.80;54.80;;;;;;5102210;28;20201;-69
2021/08/25 01:21:19;;;;;;;2.53;2.07;;;23.90;54.90;;;;;;5102045;28;20225;-69
2021/08/25 01:23:48;;;;;;;2.20;1.97;;;23.80;54.80;;;;;;5108256;28;20632;-69
2021/08/25 01:26:17;;;;;;;2.23;2.00;;;23.90;54.90;;;;;;5101069;28;20831;-69
2021/08/25 01:28:54;;;;;;;3.27;2.10;;;23.80;54.80;;;;;;5104424;28;20201;-69
2021/08/25 01:31:26;;;;;;;2.30;2.00;;;23.80;54.80;;;;;;5092933;28;20766;-69
2021/08/25 01:34:09;;;;;;;3.80;2.10;;;23.80;54.80;;;;;;5070531;28;20196;-69
2021/08/25 01:36:47;;;;;;;2.40;2.20;;;23.80;54.80;;;;;;5101664;28;20207;-69
2021/08/25 01:39:19;;;;;;;2.70;2.07;;;23.80;54.80;;;;;;5077949;28;20212;-69
2021/08/25 01:41:52;;;;;;;2.27;2.03;;;23.80;54.80;;;;;;5078819;28;20196;-69
2021/08/25 01:44:23;;;;;;;2.80;1.87;;;23.80;54.90;;;;;;5083574;28;20196;-69
2021/08/25 01:46:53;;;;;;;2.47;2.10;;;23.80;54.90;;;;;;5089608;28;20192;-69
2021/08/25 01:49:23;;;;;;;1.97;1.70;;;23.80;54.80;;;;;;5091113;28;20724;-68
2021/08/25 01:51:57;;;;;;;2.23;2.03;;;23.80;54.80;;;;;;5104651;28;20204;-68
2021/08/25 01:54:39;;;;;;;2.23;1.80;;;23.80;54.90;;;;;;5090982;28;20302;-68
2021/08/25 01:57:14;;;;;;;2.40;2.13;;;23.80;54.90;;;;;;5086501;28;20592;-68
2021/08/25 01:59:42;;;;;;;2.40;2.17;;;23.80;54.80;;;;;;5098427;28;20284;-68
2021/08/25 02:02:11;;;;;;;2.60;2.07;;;23.80;54.90;;;;;;5106794;28;20192;-68
2021/08/25 02:04:40;;;;;;;2.27;2.03;;;23.70;54.80;;;;;;5105190;28;20303;-69
2021/08/25 02:07:09;;;;;;;2.63;2.30;;;23.70;54.80;;;;;;5108111;28;20688;-69
2021/08/25 02:09:40;;;;;;;2.70;2.43;;;23.80;54.90;;;;;;5098598;28;21604;-69
2021/08/25 02:12:10;;;;;;;2.10;1.90;;;23.70;54.80;;;;;;5088791;28;20263;-69
2021/08/25 02:14:51;;;;;;;2.30;2.10;;;23.70;54.80;;;;;;5104005;28;20205;-69
2021/08/25 02:17:21;;;;;;;2.50;2.30;;;23.70;54.80;;;;;;5087088;28;20218;-68
2021/08/25 02:19:50;;;;;;;2.30;2.10;;;23.70;54.80;;;;;;5089679;28;20247;-68
2021/08/25 02:22:21;;;;;;;2.43;2.03;;;23.70;54.80;;;;;;5108354;28;20241;-68
2021/08/25 02:24:52;;;;;;;2.37;1.90;;;23.70;54.80;;;;;;5106394;28;20201;-68
2021/08/25 02:27:21;;;;;;;3.37;2.10;;;23.70;54.80;;;;;;5106413;28;20538;-68
2021/08/25 02:29:55;;;;;;;2.27;2.07;;;23.70;54.80;;;;;;5106672;28;20207;-68
2021/08/25 02:32:27;;;;;;;2.43;2.13;;;23.70;54.80;;;;;;5102846;28;20221;-68
2021/08/25 02:34:56;;;;;;;2.43;2.00;;;23.70;54.80;;;;;;5086303;28;20327;-68
2021/08/25 02:37:25;;;;;;;2.60;2.10;;;23.70;54.80;;;;;;5080023;28;20273;-68
2021/08/25 02:39:57;;;;;;;2.30;2.00;;;23.70;54.80;;;;;;5103567;28;20200;-68
2021/08/25 02:42:27;;;;;;;3.07;2.20;;;23.70;54.80;;;;;;5100868;28;20603;-68
2021/08/25 02:45:00;;;;;;;2.20;2.00;;;23.70;54.80;;;;;;5087365;28;20193;-68
2021/08/25 02:47:31;;;;;;;2.50;2.20;;;23.60;54.80;;;;;;5104987;28;20192;-69
2021/08/25 02:50:03;;;;;;;2.07;1.87;;;23.70;54.80;;;;;;5099477;28;20205;-69
2021/08/25 02:52:37;;;;;;;2.30;1.97;;;23.70;54.80;;;;;;5077335;28;20195;-69
2021/08/25 02:55:10;;;;;;;2.10;1.90;;;23.60;54.80;;;;;;5089399;28;20188;-69
2021/08/25 02:57:39;;;;;;;2.77;1.97;;;23.60;54.80;;;;;;5094260;28;20216;-69
2021/08/25 03:00:12;;;;;;;2.80;2.00;;;23.60;54.80;;;;;;5102094;28;20220;-69
2021/08/25 03:02:41;;;;;;;3.03;2.10;;;23.60;54.80;;;;;;5074450;28;20185;-68
2021/08/25 03:05:13;;;;;;;2.30;2.10;;;23.60;54.80;;;;;;5104682;28;20193;-68
2021/08/25 03:07:46;;;;;;;2.27;1.90;;;23.60;54.80;;;;;;5087482;28;20198;-68
2021/08/25 03:10:17;;;;;;;2.27;2.00;;;23.60;54.80;;;;;;5108741;28;20222;-68
2021/08/25 03:12:48;;;;;;;2.10;1.90;;;23.60;54.90;;;;;;5082452;28;20193;-68
2021/08/25 03:15:22;;;;;;;1.83;1.73;;;23.60;54.90;;;;;;5102001;28;20637;-68
2021/08/25 03:17:51;;;;;;;3.23;2.27;;;23.60;54.90;;;;;;5083729;28;20224;-68
2021/08/25 03:20:22;;;;;;;2.50;2.23;;;23.60;54.80;;;;;;5099977;28;20228;-68
2021/08/25 03:22:53;;;;;;;2.23;2.03;;;23.60;54.80;;;;;;5099763;28;20208;-68
2021/08/25 03:25:24;;;;;;;2.53;2.27;;;23.60;54.90;;;;;;5108064;28;20277;-69
2021/08/25 03:27:55;;;;;;;2.20;1.80;;;23.60;54.90;;;;;;5099239;28;20189;-69
2021/08/25 03:30:24;;;;;;;4.47;2.33;;;23.50;54.80;;;;;;5056677;28;20637;-69
2021/08/25 03:33:03;;;;;;;2.67;2.23;;;23.60;54.80;;;;;;5095207;28;20278;-69
2021/08/25 03:35:32;;;;;;;2.00;1.80;;;23.50;54.80;;;;;;5080162;28;20197;-69
2021/08/25 03:38:02;;;;;;;2.23;1.83;;;23.50;54.80;;;;;;5091224;28;20640;-68
2021/08/25 03:40:38;;;;;;;2.97;1.90;;;23.50;54.80;;;;;;5106513;28;20207;-68
2021/08/25 03:43:10;;;;;;;2.83;2.10;;;23.50;54.90;;;;;;5099312;28;20448;-68
2021/08/25 03:45:39;;;;;;;2.17;1.87;;;23.50;54.80;;;;;;5105226;28;20184;-68
2021/08/25 03:48:07;;;;;;;2.10;1.90;;;23.50;54.80;;;;;;5088270;28;20203;-68
2021/08/25 03:50:41;;;;;;;2.20;1.97;;;23.50;54.80;;;;;;5089310;28;20188;-68
2021/08/25 03:53:13;;;;;;;2.23;2.03;;;23.50;54.80;;;;;;5102231;28;20639;-68
2021/08/25 03:55:44;;;;;;;3.10;2.07;;;23.50;54.80;;;;;;5100498;28;20622;-68
2021/08/25 03:58:15;;;;;;;2.47;1.93;;;23.40;54.80;;;;;;5081387;28;20207;-68
2021/08/25 04:00:45;;;;;;;2.33;1.87;;;23.40;54.80;;;;;;5109714;28;20661;-68
2021/08/25 04:03:20;;;;;;;2.37;1.97;;;23.50;54.90;;;;;;5106352;28;20197;-68
2021/08/25 04:05:50;;;;;;;3.37;2.40;;;23.50;54.90;;;;;;5095316;28;20189;-68
2021/08/25 04:08:21;;;;;;;2.67;2.00;;;23.50;54.90;;;;;;5107066;28;20223;-68
2021/08/25 04:10:53;;;;;;;2.57;2.00;;;23.50;54.80;;;;;;5099549;28;20240;-68
2021/08/25 04:13:22;;;;;;;2.73;1.90;;;23.40;54.80;;;;;;5084146;28;20227;-68
2021/08/25 04:15:51;;;;;;;2.43;2.17;;;23.40;54.80;;;;;;5079176;28;20636;-68
2021/08/25 04:18:25;;;;;;;4.00;2.40;;;23.40;54.80;;;;;;5106534;28;20209;-68
2021/08/25 04:20:55;;;;;;;3.10;2.20;;;23.40;54.80;;;;;;5103075;28;20695;-68
2021/08/25 04:23:25;;;;;;;2.53;2.23;;;23.40;54.80;;;;;;5085727;28;20220;-68
2021/08/25 04:25:54;;;;;;;2.73;2.10;;;23.40;54.70;;;;;;5102814;28;20213;-68
2021/08/25 04:28:24;;;;;;;2.83;1.90;;;23.40;54.80;;;;;;5098728;28;20657;-68
2021/08/25 04:30:53;;;;;;;2.70;2.00;;;23.40;54.70;;;;;;5085733;28;20213;-68
2021/08/25 04:33:25;;;;;;;2.97;2.27;;;23.40;54.70;;;;;;5097598;28;20201;-69
2021/08/25 04:35:54;;;;;;;2.13;1.93;;;23.40;54.70;;;;;;5090057;28;21344;-69
2021/08/25 04:38:23;;;;;;;2.03;1.77;;;23.40;54.70;;;;;;5060228;28;20744;-68
2021/08/25 04:41:00;;;;;;;3.20;2.20;;;23.40;54.70;;;;;;5094833;27;20232;-68
2021/08/25 04:43:33;;;;;;;3.03;2.00;;;23.40;54.60;;;;;;5087163;27;20188;-68
2021/08/25 04:46:03;;;;;;;2.50;1.90;;;23.30;54.50;;;;;;5106208;28;20208;-68
2021/08/25 04:48:54;;;;;;;2.43;1.87;;;23.40;54.50;;;;;;5104171;28;20192;-68
2021/08/25 04:51:23;;;;;;;2.60;2.20;;;23.30;54.40;;;;;;5092443;28;20254;-68
2021/08/25 04:53:54;;;;;;;2.33;1.97;;;23.30;54.40;;;;;;5109999;28;20201;-68
2021/08/25 04:56:23;;;;;;;2.07;1.87;;;23.40;54.40;;;;;;5102192;28;20215;-68
2021/08/25 04:58:55;;;;;;;2.10;1.87;;;23.30;54.30;;;;;;5103513;28;20219;-68
2021/08/25 05:01:27;;;;;;;2.47;1.70;;;23.30;54.20;;;;;;5090564;28;20215;-68
2021/08/25 05:04:01;;;;;;;2.40;2.10;;;23.30;54.30;;;;;;5102730;28;20192;-68
2021/08/25 05:06:29;;;;;;;4.07;2.03;;;23.30;54.30;;;;;;5100227;27;20279;-69
2021/08/25 05:08:58;;;;;;;2.83;2.33;;;23.30;54.30;;;;;;5109228;28;20191;-69
2021/08/25 05:11:31;;;;;;;2.20;1.80;;;23.30;54.20;;;;;;5085252;28;20189;-69
2021/08/25 05:14:01;;;;;;;2.50;2.30;;;23.30;54.20;;;;;;5110521;28;20207;-69
2021/08/25 05:16:31;;;;;;;3.00;2.20;;;23.30;54.20;;;;;;5098847;28;20196;-69
2021/08/25 05:19:01;;;;;;;3.07;2.00;;;23.30;54.20;;;;;;5105332;28;20289;-69
2021/08/25 05:21:31;;;;;;;2.30;2.03;;;23.20;54.20;;;;;;5093448;28;20695;-69
2021/08/25 05:24:01;;;;;;;2.77;2.37;;;23.30;54.20;;;;;;5105312;28;20591;-69
2021/08/25 05:26:33;;;;;;;2.73;2.30;;;23.30;54.20;;;;;;5101845;28;20233;-69
2021/08/25 05:29:07;;;;;;;2.80;2.10;;;23.20;54.10;;;;;;5087229;28;20203;-69
2021/08/25 05:31:37;;;;;;;4.00;2.07;;;23.20;54.00;;;;;;5097784;28;20196;-69
2021/08/25 05:34:12;;;;;;;2.40;1.90;;;23.20;54.10;;;;;;5103750;28;20207;-68
2021/08/25 05:36:42;;;;;;;2.47;2.10;;;23.20;54.10;;;;;;5098255;28;20192;-69
2021/08/25 05:39:16;;;;;;;2.30;2.07;;;23.20;54.00;;;;;;5100894;28;20197;-69
2021/08/25 05:41:48;;;;;;;3.00;2.23;;;23.20;54.10;;;;;;5101444;28;20674;-69
2021/08/25 05:44:19;;;;;;;2.47;2.00;;;23.20;54.70;;;;;;5098616;28;20189;-68
2021/08/25 05:46:49;;;;;;;3.27;2.47;;;23.20;54.00;;;;;;5091454;28;20440;-68
2021/08/25 05:49:20;;;;;;;2.27;2.00;;;23.20;54.00;;;;;;5099181;28;20192;-68
2021/08/25 05:51:50;;;;;;;2.00;1.80;;;23.20;54.00;;;;;;5107730;28;20695;-68
2021/08/25 05:54:21;;;;;;;2.63;2.03;;;23.20;54.00;;;;;;5087247;28;20209;-68
2021/08/25 05:56:50;;;;;;;3.07;2.23;;;23.20;54.00;;;;;;5104118;28;20189;-69
2021/08/25 05:59:21;;;;;;;2.47;2.10;;;23.20;54.00;;;;;;5092930;28;20208;-69
2021/08/25 06:01:50;;;;;;;2.90;2.40;;;23.20;54.00;;;;;;5104065;28;20383;-69
2021/08/25 06:04:22;;;;;;;2.93;2.07;;;23.20;54.00;;;;;;5096570;28;20202;-69
2021/08/25 06:06:52;;;;;;;2.90;2.50;;;23.20;54.00;;;;;;5102002;28;20200;-68
2021/08/25 06:09:23;;;;;;;2.93;2.10;;;23.20;54.00;;;;;;5097812;28;20204;-68
2021/08/25 06:11:54;;;;;;;2.97;2.10;;;23.20;54.10;;;;;;5100813;28;20258;-68
2021/08/25 06:14:24;;;;;;;3.50;2.27;;;23.20;54.10;;;;;;5101875;28;20691;-68
2021/08/25 06:16:53;;;;;;;4.20;1.97;;;23.20;54.20;;;;;;5082007;28;20477;-68
2021/08/25 06:19:22;;;;;;;2.73;2.30;;;23.20;54.20;;;;;;5105305;28;20200;-68
2021/08/25 06:21:53;;;;;;;3.53;2.00;;;23.20;54.10;;;;;;5106154;28;20207;-69
2021/08/25 06:24:26;;;;;;;3.37;2.40;;;23.20;54.10;;;;;;5101941;28;20737;-69
2021/08/25 06:26:56;;;;;;;2.53;2.07;;;23.20;54.20;;;;;;5067344;28;20677;-69
2021/08/25 06:29:29;;;;;;;2.23;2.03;;;23.20;54.10;;;;;;5103095;28;20275;-68
2021/08/25 06:31:59;;;;;;;3.50;2.07;;;23.10;54.10;;;;;;5096596;28;20196;-68
2021/08/25 06:34:32;;;;;;;3.53;2.20;;;23.20;54.10;;;;;;5104002;28;20302;-69
2021/08/25 06:37:03;;;;;;;3.23;2.47;;;23.10;54.10;;;;;;5103403;28;20204;-68
2021/08/25 06:39:30;;;;;;;2.70;2.10;;;23.10;54.10;;;;;;5070971;28;20622;-68
2021/08/25 06:41:59;;;;;;;2.60;2.40;;;23.10;54.10;;;;;;5074723;28;20196;-69
2021/08/25 06:44:29;;;;;;;3.53;2.30;;;23.10;54.10;;;;;;5103524;28;20670;-69
2021/08/25 06:46:59;;;;;;;5.83;2.67;;;23.10;54.10;;;;;;5078864;28;20812;-69
2021/08/25 06:49:29;;;;;;;2.70;2.10;;;23.10;54.10;;;;;;5083540;28;20201;-68
2021/08/25 06:51:58;;;;;;;3.30;2.57;;;23.10;54.10;;;;;;5098227;28;20203;-68
2021/08/25 06:54:29;;;;;;;3.00;2.50;;;23.10;54.70;;;;;;5101442;28;20676;-69
2021/08/25 06:56:59;;;;;;;4.30;2.50;;;23.20;54.20;;;;;;5105108;28;20197;-69
2021/08/25 06:59:30;;;;;;;4.00;2.40;;;23.10;54.20;;;;;;5098176;28;20626;-69
2021/08/25 07:02:05;;;;;;;3.80;2.27;;;23.10;54.20;;;;;;5099270;28;20197;-69
2021/08/25 07:04:36;;;;;;;2.93;2.40;;;23.10;54.30;;;;;;5096664;28;20228;-69
2021/08/25 07:07:08;;;;;;;4.40;2.10;;;23.10;54.20;;;;;;5089917;28;20222;-66
2021/08/25 07:09:42;;;;;;;4.43;2.80;;;23.10;54.40;;;;;;5071473;28;21248;-67
2021/08/25 07:12:14;;;;;;;9.77;3.53;;;23.30;54.50;;;;;;5104490;28;20957;-67
2021/08/25 07:14:45;;;;;;;5.80;3.47;;;23.20;54.40;;;;;;5090597;28;20208;-66
2021/08/25 07:17:12;;;;;;;7.47;3.77;;;23.30;54.20;;;;;;5090676;28;20207;-65
2021/08/25 07:19:47;;;;;;;11.87;3.27;;;23.30;54.00;;;;;;5106538;28;20209;-66
2021/08/25 07:22:19;;;;;;;7.53;3.70;;;23.30;53.80;;;;;;5106827;27;20200;-66
2021/08/25 07:24:53;;;;;;;9.13;4.47;;;23.30;53.70;;;;;;5111414;28;20680;-66
2021/08/25 07:27:22;;;;;;;23.50;6.53;;;23.40;54.10;;;;;;5105085;27;20248;-66
2021/08/25 07:29:51;;;;;;;18.27;6.13;;;23.40;54.50;;;;;;5100159;28;20201;-65
2021/08/25 07:32:20;;;;;;;16.37;6.03;;;23.40;54.20;;;;;;5106378;28;20192;-65
2021/08/25 07:34:52;;;;;;;11.43;5.37;;;23.50;54.30;;;;;;5100576;28;20212;-68
2021/08/25 07:37:23;;;;;;;12.83;5.40;;;23.50;54.90;;;;;;5072968;28;20676;-67
2021/08/25 07:39:52;;;;;;;11.00;5.30;;;23.50;54.50;;;;;;5101463;28;20192;-69
2021/08/25 07:42:38;;;;;;;9.17;4.57;;;23.60;54.10;;;;;;5103749;28;20216;-66
2021/08/25 07:45:21;;;;;;;7.07;3.80;;;23.60;53.50;;;;;;5094142;27;20211;-67
2021/08/25 07:47:52;;;;;;;9.60;4.13;;;23.60;53.00;;;;;;5106143;28;20208;-69
2021/08/25 07:50:22;;;;;;;6.13;3.57;;;23.70;52.90;;;;;;5088639;28;20202;-69
2021/08/25 07:52:52;;;;;;;8.03;3.80;;;23.70;52.70;;;;;;5106387;27;20505;-69
2021/08/25 07:55:22;;;;;;;8.40;3.90;;;23.70;52.80;;;;;;5109370;27;20229;-68
2021/08/25 07:57:53;;;;;;;4.33;3.40;;;23.70;52.70;;;;;;5102089;27;20200;-68
2021/08/25 08:00:23;;;;;;;4.37;3.10;;;23.70;52.40;;;;;;5107619;28;20212;-68
2021/08/25 08:02:53;;;;;;;4.03;3.60;;;23.70;52.30;;;;;;5104785;28;20238;-70
2021/08/25 08:05:22;;;;;;;4.40;3.10;;;23.80;52.10;;;;;;5103460;28;20223;-64
2021/08/25 08:07:53;;;;;;;4.53;3.33;;;23.80;52.40;;;;;;5104997;27;20195;-66
2021/08/25 08:10:21;;;;;;;4.43;3.30;;;23.80;52.40;;;;;;5104417;27;20283;-67
2021/08/25 08:12:54;;;;;;;6.63;3.20;;;23.80;53.20;;;;;;5102042;28;20193;-69
2021/08/25 08:15:29;;;;;;;6.90;4.03;;;23.80;53.50;;;;;;5106786;27;20204;-70
2021/08/25 08:18:07;;;;;;;6.33;3.73;;;23.80;53.50;;;;;;5096060;28;20237;-68
2021/08/25 08:20:42;;;;;;;5.10;3.33;;;23.90;53.80;;;;;;5091160;28;20227;-69
2021/08/25 08:23:11;;;;;;;6.83;3.40;;;23.90;53.70;;;;;;5102256;28;20855;-70
2021/08/25 08:25:50;;;;;;;7.17;3.43;;;23.90;53.80;;;;;;5104422;28;20220;-69
2021/08/25 08:28:19;;;;;;;4.40;3.13;;;24.00;53.70;;;;;;5083387;28;20634;-70
2021/08/25 08:30:49;;;;;;;4.87;3.10;;;24.00;53.80;;;;;;5102732;28;20223;-68
2021/08/25 08:33:20;;;;;;;3.50;3.20;;;24.00;53.50;;;;;;5107532;28;20192;-67
2021/08/25 08:35:52;;;;;;;7.70;3.60;;;24.10;53.70;;;;;;5103847;28;20196;-69
2021/08/25 08:38:22;;;;;;;7.03;3.23;;;24.10;53.80;;;;;;5109615;28;20201;-68
2021/08/25 08:40:53;;;;;;;7.73;3.50;;;24.20;53.70;;;;;;5103044;28;20212;-69
2021/08/25 08:43:25;;;;;;;5.73;3.40;;;24.10;53.60;;;;;;5101926;28;20278;-69
2021/08/25 08:45:57;;;;;;;6.07;3.60;;;24.20;53.40;;;;;;5089066;28;20737;-67
2021/08/25 08:48:34;;;;;;;6.73;3.03;;;24.20;53.30;;;;;;5087361;28;20712;-67
2021/08/25 08:51:04;;;;;;;4.83;3.87;;;24.30;53.20;;;;;;5105423;28;20196;-67
2021/08/25 08:53:33;;;;;;;6.53;3.40;;;24.30;51.80;;;;;;5106252;28;20196;-67
2021/08/25 08:56:01;;;;;;;5.17;3.00;;;24.30;52.00;;;;;;5088946;28;20673;-68
2021/08/25 08:58:30;;;;;;;5.53;3.70;;;24.30;52.10;;;;;;5101889;28;20255;-70
2021/08/25 09:01:02;;;;;;;3.93;3.10;;;24.30;52.30;;;;;;5082831;28;20541;-71
2021/08/25 09:03:34;;;;;;;5.23;2.90;;;24.30;52.40;;;;;;5103970;28;20197;-67
2021/08/25 09:06:10;;;;;;;5.77;3.77;;;24.40;52.70;;;;;;5067356;28;20199;-69
2021/08/25 09:08:45;;;;;;;4.83;2.87;;;24.40;52.20;;;;;;5087899;28;20208;-71
2021/08/25 09:11:19;;;;;;;4.53;3.20;;;24.40;51.60;;;;;;5106712;27;20208;-69
2021/08/25 09:13:51;;;;;;;4.23;3.10;;;24.40;51.90;;;;;;5102113;28;20243;-72
2021/08/25 09:16:31;;;;;;;3.53;2.87;;;24.40;51.50;;;;;;5105970;27;20208;-72
2021/08/25 09:19:17;;;;;;;4.67;3.00;;;24.40;51.90;;;;;;5060393;28;20219;-72
2021/08/25 09:22:00;;;;;;;4.03;3.20;;;24.50;52.90;;;;;;5103649;27;20307;-70
2021/08/25 09:24:41;;;;;;;4.90;3.83;;;24.50;52.90;;;;;;5104658;28;20176;-69
2021/08/25 09:27:16;;;;;;;5.03;3.20;;;24.50;52.90;;;;;;5086417;28;20212;-70
2021/08/25 09:29:57;;;;;;;3.70;3.03;;;24.60;52.80;;;;;;5089612;28;20200;-70
2021/08/25 09:32:28;;;;;;;4.10;3.20;;;24.60;53.20;;;;;;5102085;28;20207;-71
2021/08/25 09:35:07;;;;;;;4.47;3.10;;;24.60;53.10;;;;;;5069047;28;20661;-71
2021/08/25 09:37:35;;;;;;;4.37;3.10;;;24.60;53.20;;;;;;5105150;28;20749;-71
2021/08/25 09:40:17;;;;;;;4.50;3.30;;;24.70;53.10;;;;;;5103197;28;20271;-71
2021/08/25 09:42:51;;;;;;;3.87;3.13;;;24.70;51.90;;;;;;5106049;28;20224;-71
2021/08/25 09:45:23;;;;;;;6.03;3.63;;;24.70;52.40;;;;;;5102315;28;20225;-70
2021/08/25 09:47:56;;;;;;;5.73;3.53;;;24.70;52.10;;;;;;5105135;28;20200;-69
2021/08/25 09:50:27;;;;;;;3.63;3.23;;;24.70;51.40;;;;;;5086795;28;20211;-69
2021/08/25 09:53:01;;;;;;;3.83;3.33;;;24.70;51.30;;;;;;5087805;28;20696;-69
2021/08/25 09:55:32;;;;;;;6.33;3.80;;;24.60;50.60;;;;;;5101502;27;20203;-69
2021/08/25 09:58:14;;;;;;;3.70;3.20;;;24.70;50.40;;;;;;5101074;28;20642;-69
2021/08/25 10:00:47;;;;;;;3.60;3.07;;;24.60;51.10;;;;;;5109890;28;20250;-69
2021/08/25 10:03:22;;;;;;;4.13;3.30;;;24.60;51.00;;;;;;5089145;28;20254;-69
2021/08/25 10:06:03;;;;;;;4.60;3.20;;;24.60;50.30;;;;;;5090047;28;20259;-69
2021/08/25 10:08:34;;;;;;;4.20;3.33;;;24.60;50.00;;;;;;5086018;28;20192;-69
2021/08/25 10:11:09;;;;;;;4.60;3.20;;;24.60;50.40;;;;;;5093187;27;20538;-70
2021/08/25 10:14:00;;;;;;;4.73;3.60;;;24.50;48.50;;;;;;5100883;28;20602;-69
2021/08/25 10:16:49;;;;;;;3.97;3.27;;;24.50;47.90;;;;;;5081794;28;20205;-69
2021/08/25 10:19:40;;;;;;;4.53;3.40;;;24.50;47.20;;;;;;5080154;28;20196;-69
2021/08/25 10:22:16;;;;;;;4.70;4.00;;;24.40;47.00;;;;;;5106133;28;20232;-69
2021/08/25 10:25:02;;;;;;;3.73;3.30;;;24.40;47.30;;;;;;5097212;28;20187;-69
2021/08/25 10:27:32;;;;;;;4.23;3.40;;;24.40;47.70;;;;;;5093731;28;20248;-69
2021/08/25 10:30:17;;;;;;;4.23;3.13;;;24.40;47.80;;;;;;5079610;28;20310;-69
2021/08/25 10:32:55;;;;;;;5.10;3.03;;;24.40;47.50;;;;;;5086307;28;20184;-70
2021/08/25 10:35:32;;;;;;;4.13;3.10;;;24.40;47.80;;;;;;5102497;28;20211;-69
2021/08/25 10:38:27;;;;;;;3.50;3.20;;;24.40;48.10;;;;;;5100105;28;20185;-69
2021/08/25 10:41:17;;;;;;;3.80;3.07;;;24.40;48.50;;;;;;5102127;28;20898;-70
2021/08/25 10:43:49;;;;;;;3.73;3.00;;;24.40;48.10;;;;;;5087842;28;20195;-69
2021/08/25 10:46:45;;;;;;;5.73;2.97;;;24.40;49.30;;;;;;5084012;28;20189;-69
2021/08/25 10:49:44;;;;;;;3.23;2.73;;;24.40;49.60;;;;;;5086062;28;20184;-69
2021/08/25 10:52:18;;;;;;;4.40;3.13;;;24.40;48.90;;;;;;5095035;28;20216;-69
2021/08/25 10:54:49;;;;;;;4.43;3.37;;;24.40;48.80;;;;;;5096902;28;20569;-70
2021/08/25 10:57:27;;;;;;;4.17;3.10;;;24.40;48.40;;;;;;5102089;28;20189;-70
2021/08/25 11:00:10;;;;;;;3.70;3.20;;;24.40;49.00;;;;;;5100067;28;20215;-69
2021/08/25 11:02:41;;;;;;;4.27;3.10;;;24.40;48.80;;;;;;5099063;28;20265;-70
2021/08/25 11:05:14;;;;;;;3.53;2.90;;;24.40;47.00;;;;;;5083568;28;20204;-70
2021/08/25 11:07:47;;;;;;;3.80;3.00;;;24.40;47.30;;;;;;5100279;28;20646;-70
2021/08/25 11:10:23;;;;;;;3.87;3.17;;;24.40;47.40;;;;;;5104020;28;20212;-70
2021/08/25 11:12:54;;;;;;;4.43;3.23;;;24.40;48.70;;;;;;5101350;28;20559;-69
2021/08/25 11:15:31;;;;;;;7.47;3.37;;;24.40;47.90;;;;;;5104099;28;20204;-69
2021/08/25 11:18:02;;;;;;;4.57;3.40;;;24.40;49.30;;;;;;5092849;28;20198;-70
2021/08/25 11:20:33;;;;;;;5.17;2.97;;;24.40;49.80;;;;;;5072020;28;20204;-73
2021/08/25 11:23:04;;;;;;;3.20;2.90;;;24.50;50.00;;;;;;5092759;28;20200;-70
2021/08/25 11:25:36;;;;;;;3.50;2.80;;;24.50;49.90;;;;;;5085052;28;20207;-68
2021/08/25 11:28:07;;;;;;;4.40;2.70;;;24.50;50.60;;;;;;5099616;28;20714;-66
2021/08/25 11:30:43;;;;;;;6.77;3.10;;;24.60;50.70;;;;;;5102801;28;20197;-64
2021/08/25 11:33:16;;;;;;;4.70;2.67;;;24.60;50.90;;;;;;5094093;28;20253;-66
2021/08/25 11:35:46;;;;;;;5.60;2.63;;;24.70;51.00;;;;;;5082465;28;20261;-67
2021/08/25 11:38:18;;;;;;;3.40;2.63;;;24.70;51.20;;;;;;5080451;28;20192;-68
2021/08/25 11:40:48;;;;;;;3.23;2.93;;;24.80;51.00;;;;;;5100400;28;20225;-70
2021/08/25 11:43:24;;;;;;;3.10;2.77;;;24.80;51.10;;;;;;5089578;28;20219;-69
2021/08/25 11:46:02;;;;;;;3.93;2.87;;;24.90;51.50;;;;;;5080349;28;20188;-72
2021/08/25 11:48:35;;;;;;;3.20;2.60;;;24.90;51.10;;;;;;5103508;28;20220;-70
2021/08/25 11:51:06;;;;;;;3.37;2.57;;;25.00;51.50;;;;;;5087875;28;20188;-70
2021/08/25 11:53:40;;;;;;;3.63;3.10;;;25.00;51.60;;;;;;5109179;28;20211;-69
2021/08/25 11:56:09;;;;;;;3.80;2.77;;;25.00;51.40;;;;;;5101893;28;20232;-70
2021/08/25 11:58:42;;;;;;;4.03;2.90;;;25.10;52.00;;;;;;5086000;28;20226;-70
2021/08/25 12:01:26;;;;;;;3.60;3.13;;;25.10;51.20;;;;;;5105158;28;20671;-72
2021/08/25 12:03:57;;;;;;;3.63;3.03;;;25.20;50.70;;;;;;5089903;28;20218;-68
2021/08/25 12:06:44;;;;;;;4.30;3.77;;;25.20;49.50;;;;;;5108576;28;20199;-68
2021/08/25 12:09:34;;;;;;;4.33;3.70;;;25.20;49.40;;;;;;5103130;28;20203;-68
2021/08/25 12:12:03;;;;;;;5.43;3.90;;;25.20;47.80;;;;;;5106910;28;20192;-68
2021/08/25 12:14:51;;;;;;;4.63;3.83;;;25.20;47.80;;;;;;5086875;27;20196;-68
2021/08/25 12:17:22;;;;;;;7.63;4.27;;;25.20;47.80;;;;;;5107628;28;20217;-67
2021/08/25 12:20:08;;;;;;;4.40;3.97;;;25.10;46.10;;;;;;5088815;28;20201;-68
2021/08/25 12:22:39;;;;;;;5.63;4.37;;;25.10;45.80;;;;;;5109105;28;20235;-67
2021/08/25 12:25:38;;;;;;;5.47;3.57;;;25.10;46.60;;;;;;5087914;28;20200;-67
2021/08/25 12:28:06;;;;;;;6.70;3.90;;;25.10;48.00;;;;;;5106504;28;20305;-70
2021/08/25 12:30:44;;;;;;;3.80;3.27;;;25.00;49.30;;;;;;5104470;28;20215;-69
2021/08/25 12:33:29;;;;;;;6.30;4.00;;;25.00;50.00;;;;;;5107357;28;20276;-68
2021/08/25 12:36:16;;;;;;;5.60;3.97;;;25.00;48.30;;;;;;5111060;28;20195;-69
2021/08/25 12:38:57;;;;;;;5.47;4.27;;;25.10;47.90;;;;;;5104960;28;20185;-68
2021/08/25 12:41:32;;;;;;;6.20;3.80;;;25.10;48.00;;;;;;5100120;28;20313;-70
2021/08/25 12:44:03;;;;;;;6.40;4.67;;;25.20;49.20;;;;;;5066489;28;20523;-67
2021/08/25 12:46:49;;;;;;;5.27;4.33;;;25.20;47.00;;;;;;5092307;28;20200;-71
2021/08/25 12:49:20;;;;;;;6.50;4.87;;;25.20;46.10;;;;;;5081288;28;20779;-69
2021/08/25 12:51:53;;;;;;;8.77;4.80;;;25.30;46.20;;;;;;5099470;28;20204;-70
2021/08/25 12:54:23;;;;;;;4.70;4.00;;;25.30;46.40;;;;;;5089577;28;20275;-68
2021/08/25 12:56:58;;;;;;;4.80;4.13;;;25.30;46.70;;;;;;5085478;28;20235;-68
2021/08/25 12:59:32;;;;;;;5.73;4.23;;;25.40;48.40;;;;;;5107730;28;20661;-68
2021/08/25 13:02:02;;;;;;;6.50;4.77;;;25.40;46.80;;;;;;5104741;28;20317;-70
2021/08/25 13:04:31;;;;;;;5.20;4.20;;;25.40;46.90;;;;;;5091890;28;20197;-69
2021/08/25 13:07:02;;;;;;;7.40;4.80;;;25.40;47.20;;;;;;5101486;28;20627;-69
2021/08/25 13:09:49;;;;;;;5.40;4.90;;;25.50;46.60;;;;;;5112363;27;20184;-69
2021/08/25 13:12:20;;;;;;;6.70;4.67;;;25.50;45.10;;;;;;5102206;28;20205;-68
2021/08/25 13:14:49;;;;;;;6.60;4.03;;;25.50;46.00;;;;;;5098460;28;20617;-69
2021/08/25 13:17:21;;;;;;;5.30;4.07;;;25.40;47.40;;;;;;5102534;28;20206;-69